createdAt,value
2018-02-09T18:04:41.038Z,33.20
2018-02-09T18:42:13.147Z,35.90
2018-02-09T18:44:39.595Z,35.90
2018-02-09T18:47:05.861Z,35.60
2018-02-09T18:49:32.825Z,36.30
2018-02-09T18:51:59.128Z,35.80
2018-02-09T18:54:25.520Z,34.90
2018-02-09T18:56:51.978Z,36.20
2018-02-09T18:59:19.292Z,38.90
2018-02-09T19:01:46.038Z,38.80
2018-02-09T19:04:12.300Z,39.90
2018-02-09T19:06:39.278Z,40.90
2018-02-09T19:09:06.291Z,41.10
2018-02-09T19:11:32.980Z,41.00
2018-02-09T19:13:59.191Z,41.00
2018-02-09T19:16:25.423Z,41.00
2018-02-09T19:18:52.369Z,40.80
2018-02-09T19:21:19.999Z,41.30
2018-02-09T19:23:46.618Z,41.30
2018-02-09T19:26:12.864Z,41.50
2018-02-09T19:28:39.126Z,41.50
2018-02-09T19:31:05.453Z,41.60
2018-02-09T19:33:31.699Z,41.70
2018-02-09T19:35:57.937Z,41.80
2018-02-09T19:38:24.200Z,41.80
2018-02-09T19:40:50.606Z,41.80
2018-02-09T19:43:16.831Z,42.50
2018-02-09T19:45:43.064Z,41.90
2018-02-09T19:48:09.962Z,41.90
2018-02-09T19:50:36.944Z,42.00
2018-02-09T19:53:03.456Z,41.90
2018-02-09T19:55:31.532Z,42.00
2018-02-09T19:57:57.763Z,41.90
2018-02-09T20:00:24.032Z,42.00
2018-02-09T20:02:50.441Z,42.00
2018-02-09T20:05:17.434Z,42.10
2018-02-09T20:07:43.684Z,42.00
2018-02-09T20:10:10.111Z,42.10
2018-02-09T20:12:36.471Z,41.90
2018-02-09T20:15:02.728Z,41.90
2018-02-09T20:17:29.198Z,42.00
2018-02-09T20:19:55.458Z,42.10
2018-02-09T20:22:22.085Z,42.10
2018-02-09T20:24:48.333Z,42.10
2018-02-09T20:27:14.816Z,42.20
2018-02-09T20:29:41.926Z,42.20
2018-02-09T20:32:08.949Z,42.20
2018-02-09T20:34:35.602Z,42.20
2018-02-09T20:37:01.856Z,42.20
2018-02-09T20:39:28.114Z,42.20
2018-02-09T20:41:54.366Z,42.10
2018-02-09T20:44:20.618Z,42.10
2018-02-09T20:46:46.878Z,42.10
2018-02-09T20:49:13.623Z,42.20
2018-02-09T20:51:40.372Z,42.20
2018-02-09T20:54:06.983Z,42.20
2018-02-09T20:56:33.225Z,42.20
2018-02-09T20:58:59.824Z,41.80
2018-02-09T21:01:26.126Z,42.30
2018-02-09T21:03:52.422Z,42.30
2018-02-09T21:06:18.651Z,42.30
2018-02-09T21:08:44.900Z,42.30
2018-02-09T21:11:11.118Z,42.30
2018-02-09T21:13:37.935Z,42.40
2018-02-09T21:16:04.168Z,42.40
2018-02-09T21:18:30.406Z,42.40
2018-02-09T21:20:56.866Z,42.40
2018-02-09T21:23:23.085Z,42.40
2018-02-09T21:25:49.338Z,42.40
2018-02-09T21:28:15.567Z,42.40
2018-02-09T21:30:41.796Z,42.40
2018-02-09T21:33:08.039Z,42.40
2018-02-09T21:35:34.265Z,41.80
2018-02-09T21:38:00.523Z,40.90
2018-02-09T21:40:27.498Z,39.70
2018-02-09T21:42:54.519Z,39.30
2018-02-09T21:45:21.538Z,39.80
2018-02-09T21:47:47.796Z,39.70
2018-02-09T21:50:14.050Z,39.00
2018-02-09T21:52:40.569Z,40.40
2018-02-09T21:55:06.830Z,41.00
2018-02-09T21:57:33.072Z,41.30
2018-02-09T21:59:59.582Z,41.40
2018-02-09T22:02:25.819Z,41.40
2018-02-09T22:04:52.039Z,41.50
2018-02-09T22:07:18.267Z,41.60
2018-02-09T22:09:44.495Z,41.60
2018-02-09T22:12:10.930Z,41.70
2018-02-09T22:14:37.147Z,41.60
2018-02-09T22:17:03.411Z,41.60
2018-02-09T22:19:29.631Z,41.60
2018-02-09T22:21:55.855Z,41.70
2018-02-09T22:24:22.098Z,41.60
2018-02-09T22:26:49.338Z,41.70
2018-02-09T22:29:15.599Z,41.80
2018-02-09T22:31:41.830Z,41.90
2018-02-09T22:34:08.822Z,41.90
2018-02-09T22:36:35.066Z,42.00
2018-02-09T22:39:01.546Z,41.90
2018-02-09T22:41:27.790Z,41.80
2018-02-09T22:43:54.796Z,41.80
2018-02-09T22:46:21.112Z,41.90
2018-02-09T22:48:47.344Z,42.00
2018-02-09T22:51:13.582Z,42.00
2018-02-09T22:53:39.833Z,42.10
2018-02-09T22:56:06.314Z,42.10
2018-02-09T22:58:32.549Z,42.10
2018-02-09T23:00:58.779Z,42.10
2018-02-09T23:03:25.031Z,42.10
2018-02-09T23:05:51.273Z,42.10
2018-02-09T23:08:17.513Z,42.10
2018-02-09T23:10:43.740Z,42.10
2018-02-09T23:13:09.993Z,42.10
2018-02-09T23:15:36.802Z,42.20
2018-02-09T23:18:03.045Z,42.20
2018-02-09T23:20:29.342Z,42.20
2018-02-09T23:22:55.581Z,42.20
2018-02-09T23:25:22.238Z,42.20
2018-02-09T23:27:49.230Z,42.20
2018-02-09T23:30:15.474Z,42.20
2018-02-09T23:32:41.693Z,42.20
2018-02-09T23:35:07.949Z,42.20
2018-02-09T23:37:34.204Z,42.30
2018-02-09T23:40:00.449Z,42.20
2018-02-09T23:42:26.698Z,42.20
2018-02-09T23:44:53.710Z,42.30
2018-02-09T23:47:19.962Z,42.20
2018-02-09T23:49:46.204Z,42.20
2018-02-09T23:52:12.461Z,42.30
2018-02-09T23:54:39.493Z,42.30
2018-02-09T23:57:05.741Z,42.20
2018-02-09T23:59:31.974Z,42.30
